createdAt,value
2018-06-24T00:00:15.521Z,1007.72
2018-06-24T00:01:15.510Z,1007.67
2018-06-24T00:02:15.502Z,1007.68
2018-06-24T00:03:15.495Z,1007.74
2018-06-24T00:04:15.489Z,1007.70
2018-06-24T00:05:15.483Z,1007.68
2018-06-24T00:06:15.475Z,1007.69
2018-06-24T00:07:15.471Z,1007.70
2018-06-24T00:08:15.461Z,1007.69
2018-06-24T00:09:15.454Z,1007.68
2018-06-24T00:10:15.446Z,1007.69
2018-06-24T00:11:15.441Z,1007.69
2018-06-24T00:12:15.433Z,1007.67
2018-06-24T00:13:15.426Z,1007.70
2018-06-24T00:14:15.440Z,1007.72
2018-06-24T00:15:15.411Z,1007.71
2018-06-24T00:16:15.404Z,1007.68
2018-06-24T00:17:15.399Z,1007.69
2018-06-24T00:18:15.389Z,1007.72
2018-06-24T00:19:15.386Z,1007.71
2018-06-24T00:20:15.375Z,1007.74
2018-06-24T00:21:15.368Z,1007.72
2018-06-24T00:22:15.359Z,1007.76
2018-06-24T00:23:15.352Z,1007.72
2018-06-24T00:24:15.348Z,1007.70
2018-06-24T00:25:15.338Z,1007.72
2018-06-24T00:26:15.330Z,1007.68
2018-06-24T00:27:15.323Z,1007.68
2018-06-24T00:28:15.315Z,1007.66
2018-06-24T00:29:15.308Z,1007.66
2018-06-24T00:30:15.304Z,1007.65
2018-06-24T00:31:15.293Z,1007.68
2018-06-24T00:32:15.285Z,1007.65
2018-06-24T00:33:15.278Z,1007.62
2018-06-24T00:34:15.269Z,1007.67
2018-06-24T00:35:15.262Z,1007.70
2018-06-24T00:36:15.254Z,1007.64
2018-06-24T00:37:15.262Z,1007.62
2018-06-24T00:38:15.241Z,1007.63
2018-06-24T00:39:15.230Z,1007.60
2018-06-24T00:40:15.224Z,1007.58
2018-06-24T00:41:15.215Z,1007.55
2018-06-24T00:42:16.409Z,1007.55
2018-06-24T00:43:15.200Z,1007.55
2018-06-24T00:44:15.192Z,1007.55
2018-06-24T00:45:15.184Z,1007.52
2018-06-24T00:46:15.176Z,1007.50
2018-06-24T00:47:15.167Z,1007.49
2018-06-24T00:48:15.160Z,1007.48
2018-06-24T00:49:15.152Z,1007.50
2018-06-24T00:50:15.143Z,1007.50
2018-06-24T00:51:15.135Z,1007.46
2018-06-24T00:52:15.127Z,1007.48
2018-06-24T00:53:15.119Z,1007.46
2018-06-24T00:54:15.315Z,1007.40
2018-06-24T00:55:15.103Z,1007.38
2018-06-24T00:56:15.095Z,1007.37
2018-06-24T00:57:15.088Z,1007.34
2018-06-24T00:58:15.078Z,1007.32
2018-06-24T00:59:15.073Z,1007.30
2018-06-24T01:00:15.063Z,1007.35
2018-06-24T01:01:15.056Z,1007.34
2018-06-24T01:02:15.048Z,1007.34
2018-06-24T01:03:15.040Z,1007.32
2018-06-24T01:04:15.035Z,1007.32
2018-06-24T01:05:15.026Z,1007.31
2018-06-24T01:06:15.020Z,1007.29
2018-06-24T01:07:15.009Z,1007.34
2018-06-24T01:08:15.000Z,1007.35
2018-06-24T01:09:14.996Z,1007.37
2018-06-24T01:10:14.989Z,1007.36
2018-06-24T01:11:14.980Z,1007.39
2018-06-24T01:12:14.969Z,1007.34
2018-06-24T01:13:14.962Z,1007.36
2018-06-24T01:14:14.953Z,1007.39
2018-06-24T01:15:14.946Z,1007.38
2018-06-24T01:16:14.938Z,1007.34
2018-06-24T01:17:14.930Z,1007.30
2018-06-24T01:18:14.922Z,1007.26
2018-06-24T01:19:14.915Z,1007.26
2018-06-24T01:20:14.907Z,1007.21
2018-06-24T01:21:14.903Z,1007.20
2018-06-24T01:22:14.892Z,1007.19
2018-06-24T01:23:14.884Z,1007.18
2018-06-24T01:24:14.877Z,1007.17
2018-06-24T01:25:14.869Z,1007.18
2018-06-24T01:26:14.864Z,1007.19
2018-06-24T01:27:14.854Z,1007.17
2018-06-24T01:28:14.846Z,1007.15
2018-06-24T01:29:14.839Z,1007.22
2018-06-24T01:30:15.036Z,1007.20
2018-06-24T01:31:14.823Z,1007.16
2018-06-24T01:32:14.817Z,1007.17
2018-06-24T01:33:14.808Z,1007.18
2018-06-24T01:34:14.800Z,1007.15
2018-06-24T01:35:14.794Z,1007.18
2018-06-24T01:36:14.785Z,1007.16
2018-06-24T01:37:14.778Z,1007.10
2018-06-24T01:38:14.770Z,1007.12
2018-06-24T01:39:14.762Z,1007.11
2018-06-24T01:40:14.754Z,1007.10
2018-06-24T01:41:14.751Z,1007.09
2018-06-24T01:42:14.739Z,1007.10
2018-06-24T01:43:14.731Z,1007.06
2018-06-24T01:44:14.724Z,1007.03
2018-06-24T01:45:14.721Z,1007.03
2018-06-24T01:46:14.708Z,1007.03
2018-06-24T01:47:14.700Z,1007.00
2018-06-24T01:48:14.693Z,1006.98
2018-06-24T01:49:14.687Z,1007.02
2018-06-24T01:50:14.677Z,1006.94
2018-06-24T01:51:14.669Z,1006.95
2018-06-24T01:52:14.662Z,1006.95
2018-06-24T01:53:14.654Z,1006.89
2018-06-24T01:54:14.645Z,1006.87
2018-06-24T01:55:14.637Z,1006.88
2018-06-24T01:56:14.632Z,1006.86
2018-06-24T01:57:14.622Z,1006.85
2018-06-24T01:58:14.615Z,1006.83
2018-06-24T01:59:14.606Z,1006.85
2018-06-24T02:00:14.598Z,1006.85
2018-06-24T02:01:14.590Z,1006.83
2018-06-24T02:02:14.581Z,1006.85
2018-06-24T02:03:14.573Z,1006.82
2018-06-24T02:04:14.566Z,1006.82
2018-06-24T02:05:14.565Z,1006.77
2018-06-24T02:06:14.552Z,1006.78
2018-06-24T02:07:14.542Z,1006.79
2018-06-24T02:08:14.535Z,1006.78
2018-06-24T02:09:14.528Z,1006.78
2018-06-24T02:10:14.519Z,1006.78
2018-06-24T02:11:14.511Z,1006.74
2018-06-24T02:12:14.503Z,1006.71
2018-06-24T02:13:14.496Z,1006.71
2018-06-24T02:14:14.489Z,1006.70
2018-06-24T02:15:14.480Z,1006.71
2018-06-24T02:16:14.472Z,1006.70
2018-06-24T02:17:14.465Z,1006.71
2018-06-24T02:18:14.461Z,1006.72
2018-06-24T02:19:14.448Z,1006.70
2018-06-24T02:20:14.444Z,1006.66
2018-06-24T02:21:14.436Z,1006.68
2018-06-24T02:22:14.424Z,1006.67
2018-06-24T02:23:14.417Z,1006.67
2018-06-24T02:24:14.409Z,1006.63
2018-06-24T02:25:14.401Z,1006.61
2018-06-24T02:26:14.393Z,1006.62
2018-06-24T02:27:14.385Z,1006.58
2018-06-24T02:28:14.378Z,1006.61
2018-06-24T02:29:14.371Z,1006.59
2018-06-24T02:30:14.362Z,1006.59
2018-06-24T02:31:14.354Z,1006.57
2018-06-24T02:32:14.346Z,1006.51
2018-06-24T02:33:14.342Z,1006.48
2018-06-24T02:34:14.330Z,1006.48
2018-06-24T02:35:14.323Z,1006.46
2018-06-24T02:36:14.315Z,1006.47
2018-06-24T02:37:14.308Z,1006.45
2018-06-24T02:38:14.303Z,1006.52
2018-06-24T02:39:14.292Z,1006.51
2018-06-24T02:40:14.284Z,1006.54
2018-06-24T02:41:14.280Z,1006.55
2018-06-24T02:42:14.268Z,1006.57
2018-06-24T02:43:14.260Z,1006.58
2018-06-24T02:44:14.253Z,1006.54
2018-06-24T02:45:14.245Z,1006.50
2018-06-24T02:46:14.237Z,1006.48
2018-06-24T02:47:14.229Z,1006.46
2018-06-24T02:48:14.223Z,1006.49
2018-06-24T02:49:14.215Z,1006.49
2018-06-24T02:50:14.207Z,1006.48
2018-06-24T02:51:14.200Z,1006.52
2018-06-24T02:52:14.196Z,1006.53
2018-06-24T02:53:14.184Z,1006.51
2018-06-24T02:54:14.175Z,1006.54
2018-06-24T02:55:14.167Z,1006.56
2018-06-24T02:56:14.160Z,1006.60
2018-06-24T02:57:14.155Z,1006.56
2018-06-24T02:58:14.145Z,1006.57
2018-06-24T02:59:14.136Z,1006.58
2018-06-24T03:00:14.131Z,1006.59
2018-06-24T03:01:14.122Z,1006.59
2018-06-24T03:02:14.116Z,1006.59
2018-06-24T03:03:14.106Z,1006.55
2018-06-24T03:04:14.099Z,1006.58
2018-06-24T03:05:14.098Z,1006.58
2018-06-24T03:06:14.086Z,1006.57
2018-06-24T03:07:14.075Z,1006.57
2018-06-24T03:09:14.061Z,1006.64
2018-06-24T03:10:14.053Z,1006.65
2018-06-24T03:11:14.050Z,1006.67
2018-06-24T03:12:14.037Z,1006.68
2018-06-24T03:13:14.029Z,1006.70
2018-06-24T03:14:14.022Z,1006.76
2018-06-24T03:15:14.014Z,1006.77
2018-06-24T03:16:14.007Z,1006.76
2018-06-24T03:17:13.999Z,1006.79
2018-06-24T03:18:13.997Z,1006.79
2018-06-24T03:19:13.982Z,1006.80
2018-06-24T03:20:13.974Z,1006.79
2018-06-24T03:21:13.970Z,1006.78
2018-06-24T03:22:13.957Z,1006.75
2018-06-24T03:23:13.949Z,1006.73
2018-06-24T03:24:13.942Z,1006.73
2018-06-24T03:25:13.936Z,1006.70
2018-06-24T03:26:13.926Z,1006.69
2018-06-24T03:27:13.917Z,1006.69
2018-06-24T03:28:13.913Z,1006.74
2018-06-24T03:29:13.901Z,1006.73
2018-06-24T03:30:13.893Z,1006.75
2018-06-24T03:31:13.885Z,1006.77
2018-06-24T03:32:13.877Z,1006.76
2018-06-24T03:33:13.872Z,1006.76
2018-06-24T03:34:13.863Z,1006.69
2018-06-24T03:35:13.853Z,1006.70
2018-06-24T03:36:13.851Z,1006.71
2018-06-24T03:37:13.838Z,1006.70
2018-06-24T03:38:13.832Z,1006.71
2018-06-24T03:39:13.820Z,1006.71
2018-06-24T03:40:13.820Z,1006.68
2018-06-24T03:41:13.805Z,1006.66
2018-06-24T03:42:13.796Z,1006.69
2018-06-24T03:43:13.788Z,1006.68
2018-06-24T03:44:13.780Z,1006.71
2018-06-24T03:45:13.774Z,1006.72
2018-06-24T03:46:13.768Z,1006.70
2018-06-24T03:47:13.758Z,1006.70
2018-06-24T03:48:13.748Z,1006.66
2018-06-24T03:49:13.740Z,1006.67
2018-06-24T03:50:13.733Z,1006.67
2018-06-24T03:51:13.726Z,1006.67
2018-06-24T03:52:13.718Z,1006.66
2018-06-24T03:53:13.707Z,1006.70
2018-06-24T03:54:13.706Z,1006.71
2018-06-24T03:55:13.693Z,1006.70
2018-06-24T03:56:13.686Z,1006.73
2018-06-24T03:57:13.674Z,1006.70
2018-06-24T03:58:13.669Z,1006.74
2018-06-24T03:59:13.657Z,1006.70
2018-06-24T04:00:13.651Z,1006.76
2018-06-24T04:01:13.642Z,1006.73
2018-06-24T04:02:13.633Z,1006.78
2018-06-24T04:03:13.626Z,1006.77
2018-06-24T04:04:13.623Z,1006.80
2018-06-24T04:05:13.611Z,1006.81
2018-06-24T04:06:13.601Z,1006.77
2018-06-24T04:07:13.598Z,1006.81
2018-06-24T04:08:13.586Z,1006.76
2018-06-24T04:09:13.780Z,1006.79
2018-06-24T04:10:13.570Z,1006.75
2018-06-24T04:11:13.562Z,1006.77
2018-06-24T04:12:13.555Z,1006.69
2018-06-24T04:13:13.552Z,1006.74
2018-06-24T04:14:13.538Z,1006.75
2018-06-24T04:15:13.533Z,1006.77
2018-06-24T04:16:13.523Z,1006.78
2018-06-24T04:17:13.519Z,1006.81
2018-06-24T04:18:13.507Z,1006.82
2018-06-24T04:19:13.500Z,1006.81
2018-06-24T04:20:13.492Z,1006.83
2018-06-24T04:21:13.485Z,1006.83
2018-06-24T04:22:13.476Z,1006.87
2018-06-24T04:23:13.472Z,1006.89
2018-06-24T04:24:13.464Z,1006.90
2018-06-24T04:25:13.455Z,1006.89
2018-06-24T04:26:13.445Z,1006.89
2018-06-24T04:27:13.438Z,1006.91
2018-06-24T04:28:13.434Z,1006.91
2018-06-24T04:29:13.422Z,1006.90
2018-06-24T04:30:13.418Z,1006.88
2018-06-24T04:31:13.406Z,1006.90
2018-06-24T04:32:13.400Z,1006.90
2018-06-24T04:33:13.392Z,1006.93
2018-06-24T04:34:13.587Z,1006.90
2018-06-24T04:35:13.579Z,1006.94
2018-06-24T04:36:13.370Z,1006.90
2018-06-24T04:37:13.362Z,1006.89
2018-06-24T04:38:13.360Z,1006.88
2018-06-24T04:39:13.347Z,1006.93
2018-06-24T04:40:13.339Z,1006.96
2018-06-24T04:41:13.332Z,1006.98
2018-06-24T04:42:13.324Z,1006.99
2018-06-24T04:43:13.318Z,1007.01
2018-06-24T04:44:13.311Z,1006.98
2018-06-24T04:45:13.305Z,1006.97
2018-06-24T04:46:13.294Z,1007.00
2018-06-24T04:47:13.291Z,1006.96
2018-06-24T04:48:13.280Z,1006.99
2018-06-24T04:49:13.275Z,1006.98
2018-06-24T04:50:13.264Z,1006.97
2018-06-24T04:51:13.258Z,1007.02
2018-06-24T04:52:13.455Z,1007.04
2018-06-24T04:53:13.451Z,1007.05
2018-06-24T04:54:13.235Z,1007.02
2018-06-24T04:55:13.232Z,1007.06
2018-06-24T04:56:13.220Z,1007.00
2018-06-24T04:57:13.216Z,1007.04
2018-06-24T04:58:13.205Z,1007.07
2018-06-24T04:59:13.201Z,1007.07
2018-06-24T05:00:13.191Z,1007.02
2018-06-24T05:01:13.183Z,1007.04
2018-06-24T05:02:13.175Z,1007.01
2018-06-24T05:03:13.171Z,1006.98
2018-06-24T05:04:13.160Z,1006.99
2018-06-24T05:05:13.154Z,1006.97
2018-06-24T05:06:13.144Z,1006.97
2018-06-24T05:07:13.141Z,1006.96
2018-06-24T05:08:13.130Z,1006.96
2018-06-24T05:09:13.129Z,1006.99
2018-06-24T05:10:13.120Z,1006.99
2018-06-24T05:11:13.108Z,1007.00
2018-06-24T05:12:13.106Z,1006.99
2018-06-24T05:13:13.098Z,1007.01
2018-06-24T05:14:13.086Z,1007.01
2018-06-24T05:15:13.080Z,1007.02
2018-06-24T05:16:13.071Z,1007.03
2018-06-24T05:17:13.067Z,1007.01
2018-06-24T05:18:13.055Z,1007.09
2018-06-24T05:19:13.053Z,1007.06
2018-06-24T05:20:13.041Z,1007.08
2018-06-24T05:21:13.035Z,1007.02
2018-06-24T05:22:13.037Z,1007.03
2018-06-24T05:23:13.020Z,1007.04
2018-06-24T05:24:13.017Z,1007.04
2018-06-24T05:25:13.007Z,1007.04
2018-06-24T05:26:12.999Z,1007.05
2018-06-24T05:27:12.993Z,1007.03
2018-06-24T05:28:12.986Z,1007.07
2018-06-24T05:29:12.979Z,1007.07
2018-06-24T05:30:12.978Z,1007.11
2018-06-24T05:31:12.971Z,1007.12
2018-06-24T05:32:12.959Z,1007.12
2018-06-24T05:33:12.954Z,1007.15
2018-06-24T05:34:12.946Z,1007.13
2018-06-24T05:35:12.940Z,1007.13
2018-06-24T05:36:12.934Z,1007.15
2018-06-24T05:37:12.927Z,1007.12
2018-06-24T05:38:12.923Z,1007.16
2018-06-24T05:39:13.122Z,1007.18
2018-06-24T05:40:13.114Z,1007.17
2018-06-24T05:41:12.904Z,1007.17
2018-06-24T05:42:12.898Z,1007.15
2018-06-24T05:43:12.889Z,1007.19
2018-06-24T05:44:12.885Z,1007.19
2018-06-24T05:45:12.875Z,1007.19
2018-06-24T05:46:12.868Z,1007.24
2018-06-24T05:47:12.864Z,1007.24
2018-06-24T05:48:12.856Z,1007.28
2018-06-24T05:49:12.850Z,1007.31
2018-06-24T05:50:12.847Z,1007.31
2018-06-24T05:51:12.835Z,1007.32
2018-06-24T05:52:12.832Z,1007.31
2018-06-24T05:53:12.823Z,1007.35
2018-06-24T05:54:12.879Z,1007.32
2018-06-24T05:55:12.811Z,1007.34
2018-06-24T05:56:12.803Z,1007.33
2018-06-24T05:57:12.797Z,1007.33
2018-06-24T05:58:12.792Z,1007.31
2018-06-24T05:59:12.990Z,1007.31
2018-06-24T06:00:12.783Z,1007.27
2018-06-24T06:01:12.771Z,1007.27
2018-06-24T06:02:12.763Z,1007.27
2018-06-24T06:03:12.760Z,1007.28
2018-06-24T06:04:12.752Z,1007.32
2018-06-24T06:05:12.746Z,1007.33
2018-06-24T06:06:12.738Z,1007.37
2018-06-24T06:07:12.733Z,1007.37
2018-06-24T06:08:12.724Z,1007.36
2018-06-24T06:09:12.720Z,1007.35
2018-06-24T06:10:12.747Z,1007.36
2018-06-24T06:11:12.710Z,1007.36
2018-06-24T06:12:12.705Z,1007.35
2018-06-24T06:13:12.694Z,1007.29
2018-06-24T06:14:12.687Z,1007.31
2018-06-24T06:15:12.688Z,1007.30
2018-06-24T06:16:12.728Z,1007.31
2018-06-24T06:17:12.668Z,1007.34
2018-06-24T06:18:12.662Z,1007.32
2018-06-24T06:19:12.661Z,1007.38
2018-06-24T06:20:12.646Z,1007.29
2018-06-24T06:21:12.645Z,1007.36
2018-06-24T06:22:12.637Z,1007.37
2018-06-24T06:23:12.628Z,1007.35
2018-06-24T06:24:12.621Z,1007.32
2018-06-24T06:25:12.616Z,1007.34
2018-06-24T06:26:12.609Z,1007.32
2018-06-24T06:27:12.607Z,1007.34
2018-06-24T06:28:12.605Z,1007.32
2018-06-24T06:29:12.592Z,1007.36
2018-06-24T06:30:12.594Z,1007.34
2018-06-24T06:31:12.584Z,1007.35
2018-06-24T06:32:12.574Z,1007.38
2018-06-24T06:33:12.569Z,1007.42
2018-06-24T06:34:12.570Z,1007.41
2018-06-24T06:35:12.561Z,1007.39
2018-06-24T06:36:12.552Z,1007.34
2018-06-24T06:37:12.547Z,1007.37
2018-06-24T06:38:12.541Z,1007.37
2018-06-24T06:39:12.536Z,1007.38
2018-06-24T06:40:12.531Z,1007.40
2018-06-24T06:41:12.527Z,1007.43
2018-06-24T06:42:12.521Z,1007.42
2018-06-24T06:43:12.515Z,1007.45
2018-06-24T06:44:12.511Z,1007.43
2018-06-24T06:45:12.561Z,1007.46
2018-06-24T06:46:12.500Z,1007.47
2018-06-24T06:47:12.497Z,1007.46
2018-06-24T06:48:12.490Z,1007.46
2018-06-24T06:49:12.493Z,1007.45
2018-06-24T06:50:12.482Z,1007.49
2018-06-24T06:51:12.559Z,1007.45
2018-06-24T06:52:12.469Z,1007.43
2018-06-24T06:53:12.468Z,1007.46
2018-06-24T06:54:12.464Z,1007.50
2018-06-24T06:55:12.455Z,1007.46
2018-06-24T06:56:12.449Z,1007.50
2018-06-24T06:57:12.445Z,1007.50
2018-06-24T06:58:12.439Z,1007.48
2018-06-24T06:59:12.438Z,1007.50
2018-06-24T07:00:12.500Z,1007.51
2018-06-24T07:01:12.425Z,1007.52
2018-06-24T07:02:12.421Z,1007.53
2018-06-24T07:03:12.617Z,1007.55
2018-06-24T07:04:12.409Z,1007.56
2018-06-24T07:05:12.405Z,1007.55
2018-06-24T07:06:12.402Z,1007.58
2018-06-24T07:07:12.397Z,1007.63
2018-06-24T07:08:12.393Z,1007.60
2018-06-24T07:09:12.387Z,1007.62
2018-06-24T07:10:12.380Z,1007.58
2018-06-24T07:11:12.375Z,1007.60
2018-06-24T07:12:12.376Z,1007.57
2018-06-24T07:13:12.367Z,1007.56
2018-06-24T07:14:12.364Z,1007.58
2018-06-24T07:15:12.357Z,1007.55
2018-06-24T07:16:12.350Z,1007.57
2018-06-24T07:17:12.350Z,1007.51
2018-06-24T07:18:12.344Z,1007.55
2018-06-24T07:19:12.336Z,1007.57
2018-06-24T07:20:12.331Z,1007.56
2018-06-24T07:21:12.330Z,1007.55
2018-06-24T07:22:12.378Z,1007.55
2018-06-24T07:23:12.315Z,1007.56
2018-06-24T07:24:12.310Z,1007.55
2018-06-24T07:25:12.301Z,1007.58
2018-06-24T07:26:12.295Z,1007.59
2018-06-24T07:27:12.295Z,1007.58
2018-06-24T07:28:12.286Z,1007.58
2018-06-24T07:29:12.280Z,1007.57
2018-06-24T07:30:12.281Z,1007.58
2018-06-24T07:31:12.269Z,1007.54
2018-06-24T07:32:12.267Z,1007.59
2018-06-24T07:33:12.290Z,1007.58
2018-06-24T07:34:12.252Z,1007.60
2018-06-24T07:35:12.248Z,1007.61
2018-06-24T07:36:12.245Z,1007.64
2018-06-24T07:37:12.236Z,1007.66
2018-06-24T07:38:12.229Z,1007.65
2018-06-24T07:39:12.265Z,1007.67
2018-06-24T07:40:12.218Z,1007.68
2018-06-24T07:41:12.213Z,1007.64
2018-06-24T07:42:12.206Z,1007.67
2018-06-24T07:43:12.201Z,1007.67
2018-06-24T07:44:12.195Z,1007.68
2018-06-24T07:45:12.189Z,1007.67
2018-06-24T07:46:12.185Z,1007.64
2018-06-24T07:47:12.177Z,1007.63
2018-06-24T07:48:12.176Z,1007.67
2018-06-24T07:49:12.169Z,1007.67
2018-06-24T07:50:12.183Z,1007.67
2018-06-24T07:51:12.163Z,1007.69
2018-06-24T07:52:12.151Z,1007.66
2018-06-24T07:53:12.141Z,1007.67
2018-06-24T07:54:12.134Z,1007.71
2018-06-24T07:55:12.336Z,1007.66
2018-06-24T07:56:12.125Z,1007.66
2018-06-24T07:57:12.117Z,1007.74
2018-06-24T07:58:12.115Z,1007.73
2018-06-24T07:59:12.108Z,1007.74
2018-06-24T08:00:12.098Z,1007.73
2018-06-24T08:01:12.093Z,1007.72
2018-06-24T08:02:12.088Z,1007.71
2018-06-24T08:03:12.091Z,1007.73
2018-06-24T08:04:12.075Z,1007.71
2018-06-24T08:05:12.075Z,1007.77
2018-06-24T08:06:12.065Z,1007.79
2018-06-24T08:07:12.058Z,1007.82
2018-06-24T08:08:12.055Z,1007.86
2018-06-24T08:09:12.105Z,1007.87
2018-06-24T08:10:12.045Z,1007.84
2018-06-24T08:11:12.108Z,1007.87
2018-06-24T08:12:12.037Z,1007.87
2018-06-24T08:13:12.028Z,1007.86
2018-06-24T08:14:12.025Z,1007.85
2018-06-24T08:15:12.019Z,1007.86
2018-06-24T08:16:12.015Z,1007.85
2018-06-24T08:17:12.014Z,1007.86
2018-06-24T08:18:12.009Z,1007.88
2018-06-24T08:19:12.005Z,1007.85
2018-06-24T08:20:12.044Z,1007.86
2018-06-24T08:22:11.989Z,1007.88
2018-06-24T08:23:11.986Z,1007.84
2018-06-24T08:24:11.982Z,1007.89
2018-06-24T08:25:11.979Z,1007.84
2018-06-24T08:26:11.982Z,1007.86
2018-06-24T08:27:11.970Z,1007.82
2018-06-24T08:28:11.966Z,1007.83
2018-06-24T08:29:11.965Z,1007.84
2018-06-24T08:30:11.957Z,1007.87
2018-06-24T08:31:11.959Z,1007.86
2018-06-24T08:32:11.951Z,1007.86
2018-06-24T08:33:11.953Z,1007.84
2018-06-24T08:34:11.941Z,1007.84
2018-06-24T08:35:11.938Z,1007.86
2018-06-24T08:36:12.084Z,1007.85
2018-06-24T08:37:11.952Z,1007.83
2018-06-24T08:38:11.930Z,1007.87
2018-06-24T08:39:11.926Z,1007.84
2018-06-24T08:40:11.918Z,1007.84
2018-06-24T08:41:11.920Z,1007.83
2018-06-24T08:42:11.910Z,1007.85
2018-06-24T08:43:11.907Z,1007.85
2018-06-24T08:44:11.906Z,1007.83
2018-06-24T08:45:11.899Z,1007.89
2018-06-24T08:46:11.905Z,1007.84
2018-06-24T08:47:11.947Z,1007.91
2018-06-24T08:48:11.887Z,1007.85
2018-06-24T08:49:11.884Z,1007.86
2018-06-24T08:50:11.883Z,1007.85
2018-06-24T08:51:11.880Z,1007.84
2018-06-24T08:52:11.876Z,1007.85
2018-06-24T08:53:11.870Z,1007.88
2018-06-24T08:54:11.873Z,1007.89
2018-06-24T08:55:11.863Z,1007.88
2018-06-24T08:56:11.865Z,1007.90
2018-06-24T08:57:11.861Z,1007.95
2018-06-24T08:58:11.864Z,1007.96
2018-06-24T08:59:11.854Z,1007.96
2018-06-24T09:00:11.855Z,1007.95
2018-06-24T09:01:11.850Z,1007.96
2018-06-24T09:02:11.850Z,1007.93
2018-06-24T09:03:11.848Z,1007.94
2018-06-24T09:04:11.843Z,1007.97
2018-06-24T09:05:11.846Z,1007.93
2018-06-24T09:06:11.840Z,1007.95
2018-06-24T09:07:11.838Z,1007.94
2018-06-24T09:08:11.935Z,1007.90
2018-06-24T09:09:11.836Z,1007.92
2018-06-24T09:10:11.836Z,1007.91
2018-06-24T09:11:11.832Z,1007.92
2018-06-24T09:12:11.830Z,1007.93
2018-06-24T09:13:11.828Z,1007.93
2018-06-24T09:14:11.829Z,1007.93
2018-06-24T09:15:11.880Z,1007.89
2018-06-24T09:16:11.825Z,1007.88
2018-06-24T09:17:11.824Z,1007.87
2018-06-24T09:18:11.821Z,1007.88
2018-06-24T09:19:11.816Z,1007.87
2018-06-24T09:20:11.815Z,1007.93
2018-06-24T09:21:12.020Z,1007.91
2018-06-24T09:22:11.819Z,1007.92
2018-06-24T09:23:11.808Z,1007.88
2018-06-24T09:24:11.809Z,1007.91
2018-06-24T09:25:11.805Z,1007.95
2018-06-24T09:26:11.802Z,1007.89
2018-06-24T09:27:11.801Z,1007.93
2018-06-24T09:28:11.798Z,1007.93
2018-06-24T09:29:11.801Z,1007.94
2018-06-24T09:30:11.798Z,1007.90
2018-06-24T09:31:11.793Z,1007.90
2018-06-24T09:32:11.791Z,1007.93
2018-06-24T09:33:11.791Z,1007.94
2018-06-24T09:34:11.792Z,1007.90
2018-06-24T09:35:11.787Z,1007.89
2018-06-24T09:36:11.787Z,1007.93
2018-06-24T09:37:11.785Z,1007.94
2018-06-24T09:38:11.779Z,1007.95
2018-06-24T09:39:11.778Z,1007.92
2018-06-24T09:40:11.775Z,1007.95
2018-06-24T09:41:11.774Z,1007.99
2018-06-24T09:42:11.771Z,1008.02
2018-06-24T09:43:11.770Z,1007.97
2018-06-24T09:44:11.769Z,1007.99
2018-06-24T09:45:11.970Z,1007.94
2018-06-24T09:46:11.765Z,1007.92
2018-06-24T09:47:11.765Z,1007.94
2018-06-24T09:48:11.763Z,1007.91
2018-06-24T09:49:11.763Z,1007.95
2018-06-24T09:50:11.765Z,1007.89
2018-06-24T09:51:11.760Z,1007.95
2018-06-24T09:52:11.759Z,1007.93
2018-06-24T09:53:11.762Z,1007.90
2018-06-24T09:54:11.766Z,1007.92
2018-06-24T09:55:11.759Z,1007.91
2018-06-24T09:56:11.755Z,1007.91
2018-06-24T09:57:11.754Z,1007.91
2018-06-24T09:58:11.752Z,1007.93
2018-06-24T09:59:11.757Z,1007.90
2018-06-24T10:00:11.751Z,1007.86
2018-06-24T10:01:11.755Z,1007.93
2018-06-24T10:02:11.748Z,1007.89
2018-06-24T10:03:11.901Z,1007.91
2018-06-24T10:04:11.746Z,1007.93
2018-06-24T10:05:11.747Z,1007.95
2018-06-24T10:06:11.748Z,1007.95
2018-06-24T10:07:11.748Z,1007.93
2018-06-24T10:08:11.743Z,1007.92
2018-06-24T10:09:11.950Z,1007.91
2018-06-24T10:10:11.947Z,1007.93
2018-06-24T10:11:11.746Z,1007.93
2018-06-24T10:12:11.793Z,1007.93
2018-06-24T10:13:11.745Z,1007.90
2018-06-24T10:14:11.741Z,1007.91
2018-06-24T10:15:11.744Z,1007.91
2018-06-24T10:16:11.739Z,1007.87
2018-06-24T10:17:11.945Z,1007.90
2018-06-24T10:18:11.737Z,1007.92
2018-06-24T10:19:11.736Z,1007.89
2018-06-24T10:20:11.787Z,1007.89
2018-06-24T10:21:11.736Z,1007.87
2018-06-24T10:22:11.734Z,1007.85
2018-06-24T10:23:11.733Z,1007.83
2018-06-24T10:24:11.733Z,1007.86
2018-06-24T10:25:11.936Z,1007.84
2018-06-24T10:26:11.742Z,1007.86
2018-06-24T10:27:11.733Z,1007.84
2018-06-24T10:28:11.734Z,1007.84
2018-06-24T10:29:11.734Z,1007.81
2018-06-24T10:30:11.732Z,1007.85
2018-06-24T10:32:11.732Z,1007.83
2018-06-24T10:33:11.935Z,1007.86
2018-06-24T10:34:11.732Z,1007.86
2018-06-24T10:35:11.735Z,1007.84
2018-06-24T10:36:11.734Z,1007.84
2018-06-24T10:37:11.735Z,1007.82
2018-06-24T10:38:11.739Z,1007.83
2018-06-24T10:39:11.743Z,1007.90
2018-06-24T10:40:11.737Z,1007.97
2018-06-24T10:41:11.804Z,1007.94
2018-06-24T10:42:11.739Z,1007.90
2018-06-24T10:43:11.744Z,1007.85
2018-06-24T10:44:11.744Z,1007.92
2018-06-24T10:45:11.744Z,1007.89
2018-06-24T10:46:11.749Z,1007.96
2018-06-24T10:47:11.748Z,1007.93
2018-06-24T10:48:11.754Z,1007.93
2018-06-24T10:49:11.757Z,1007.90
2018-06-24T10:50:11.758Z,1007.92
2018-06-24T10:51:11.762Z,1007.92
2018-06-24T10:52:11.770Z,1007.87
2018-06-24T10:53:11.770Z,1007.98
2018-06-24T10:54:11.774Z,1007.95
2018-06-24T10:55:11.773Z,1007.92
2018-06-24T10:57:11.779Z,1007.98
2018-06-24T10:58:11.784Z,1007.99
2018-06-24T10:59:11.783Z,1008.05
2018-06-24T11:01:11.789Z,1008.05
2018-06-24T11:02:11.852Z,1008.04
2018-06-24T11:03:11.798Z,1008.05
2018-06-24T11:04:11.801Z,1008.00
2018-06-24T11:05:11.805Z,1008.05
2018-06-24T11:06:12.019Z,1008.04
2018-06-24T11:07:11.820Z,1008.09
2018-06-24T11:08:11.822Z,1007.96
2018-06-24T11:09:11.833Z,1007.94
2018-06-24T11:10:11.838Z,1007.93
2018-06-24T11:11:11.839Z,1007.88
2018-06-24T11:12:11.845Z,1007.89
2018-06-24T11:13:11.851Z,1007.90
2018-06-24T11:14:11.861Z,1007.91
2018-06-24T11:15:11.860Z,1007.91
2018-06-24T11:16:11.863Z,1007.91
2018-06-24T11:17:11.869Z,1007.89
2018-06-24T11:18:12.072Z,1007.95
2018-06-24T11:19:11.873Z,1007.94
2018-06-24T11:20:11.876Z,1007.94
2018-06-24T11:21:11.882Z,1008.01
2018-06-24T11:23:11.883Z,1008.00
2018-06-24T11:24:11.885Z,1007.96
2018-06-24T11:25:11.892Z,1008.01
2018-06-24T11:26:11.895Z,1007.98
2018-06-24T11:27:11.895Z,1007.99
2018-06-24T11:28:11.899Z,1008.02
2018-06-24T11:29:11.905Z,1007.96
2018-06-24T11:30:11.911Z,1007.97
2018-06-24T11:31:12.117Z,1008.00
2018-06-24T11:32:11.920Z,1007.98
2018-06-24T11:33:11.927Z,1007.99
2018-06-24T11:34:11.936Z,1007.99
2018-06-24T11:35:11.978Z,1007.97
2018-06-24T11:36:11.936Z,1007.98
2018-06-24T11:37:11.941Z,1008.00
2018-06-24T11:38:11.942Z,1008.02
2018-06-24T11:39:11.945Z,1008.02
2018-06-24T11:40:11.955Z,1008.03
2018-06-24T11:41:11.955Z,1008.03
2018-06-24T11:42:11.956Z,1008.00
2018-06-24T11:43:11.959Z,1008.00
2018-06-24T11:44:11.967Z,1007.99
2018-06-24T11:45:11.970Z,1007.95
2018-06-24T11:46:11.975Z,1008.01
2018-06-24T11:47:11.981Z,1007.96
2018-06-24T11:48:11.987Z,1007.87
2018-06-24T11:49:11.994Z,1007.93
2018-06-24T11:50:11.999Z,1007.90
2018-06-24T11:51:12.006Z,1007.93
2018-06-24T11:52:12.015Z,1007.96
2018-06-24T11:53:12.019Z,1008.00
2018-06-24T11:54:12.025Z,1007.98
2018-06-24T11:55:12.033Z,1007.88
2018-06-24T11:56:12.041Z,1007.81
2018-06-24T11:57:12.048Z,1007.81
2018-06-24T11:58:12.057Z,1007.78
2018-06-24T11:59:12.062Z,1007.80
2018-06-24T12:00:12.285Z,1007.80
2018-06-24T12:01:12.079Z,1007.76
2018-06-24T12:02:12.086Z,1007.81
2018-06-24T12:03:12.498Z,1007.86
2018-06-24T12:04:12.177Z,1007.81
2018-06-24T12:05:12.110Z,1007.82
2018-06-24T12:06:12.122Z,1007.80
2018-06-24T12:07:12.130Z,1007.85
2018-06-24T12:08:12.338Z,1007.84
2018-06-24T12:09:12.143Z,1007.86
2018-06-24T12:10:12.158Z,1007.81
2018-06-24T12:11:12.159Z,1007.77